Time;durP1;ratioP1;P1;durP2;ratioP2;P2;SDS_P1;SDS_P2;PMS_P1;PMS_P2;Temp;Humidity;BMP_temperature;BMP_pressure;BME280_temperature;BME280_humidity;BME280_pressure;Samples;Min_cycle;Max_cycle;Signal;HPM_P1;HPM_P2
2023/09/21 00:00:13;;;;;;;;;5.00;4.00;;;;;22.62;48.69;99560.13;5096573;27;45456;-72
2023/09/21 00:02:46;;;;;;;;;5.50;5.50;;;;;22.63;48.76;99571.69;5094760;27;45268;-73
2023/09/21 00:05:13;;;;;;;;;5.00;3.00;;;;;22.64;48.92;99573.38;5071191;27;45225;-73
2023/09/21 00:07:39;;;;;;;;;4.00;4.00;;;;;22.60;48.68;99562.09;5085593;27;45285;-72
2023/09/21 00:10:07;;;;;;;;;4.25;3.00;;;;;22.62;48.75;99554.78;5088251;27;45240;-73
2023/09/21 00:12:34;;;;;;;;;6.00;3.00;;;;;22.60;48.83;99559.41;5089871;27;45395;-71
2023/09/21 00:15:12;;;;;;;;;6.50;4.50;;;;;22.59;49.12;99564.91;5096342;27;45431;-72
2023/09/21 00:17:38;;;;;;;;;3.00;3.00;;;;;22.59;48.75;99562.22;5096426;27;45419;-73
2023/09/21 00:20:28;;;;;;;;;5.50;3.50;;;;;22.58;48.90;99560.50;5091608;27;45520;-73
2023/09/21 00:22:53;;;;;;;;;5.50;3.25;;;;;22.55;48.68;99545.56;5088433;27;46708;-73
2023/09/21 00:25:19;;;;;;;;;7.75;4.00;;;;;22.48;48.79;99547.06;5088285;27;45504;-73
2023/09/21 00:27:44;;;;;;;;;5.00;5.00;;;;;22.51;48.90;99549.47;5096389;27;45467;-73
2023/09/21 00:30:11;;;;;;;;;2.75;2.25;;;;;22.52;48.91;99544.00;5094874;27;45242;-72
2023/09/21 00:32:40;;;;;;;;;4.00;3.00;;;;;22.51;48.76;99544.13;5087800;27;47470;-74
2023/09/21 00:35:09;;;;;;;;;5.00;3.75;;;;;22.51;49.22;99536.94;5068646;28;45966;-72
2023/09/21 00:37:38;;;;;;;;;3.50;3.00;;;;;22.51;49.25;99541.44;5078560;27;45527;-73
2023/09/21 00:40:18;;;;;;;;;4.00;4.00;;;;;22.51;49.16;99538.78;5073830;27;45487;-73
2023/09/21 00:42:47;;;;;;;;;3.25;3.25;;;;;22.48;48.87;99531.84;5069219;27;45332;-71
2023/09/21 00:45:14;;;;;;;;;3.00;2.75;;;;;22.49;48.85;99538.91;5094171;27;46814;-73
2023/09/21 00:47:43;;;;;;;;;3.75;3.00;;;;;22.45;49.17;99518.75;5070042;27;45415;-71
2023/09/21 00:50:12;;;;;;;;;2.50;2.50;;;;;22.48;49.09;99539.88;5095823;27;45457;-71
2023/09/21 00:52:42;;;;;;;;;5.00;4.00;;;;;22.46;49.41;99535.63;5091071;27;46215;-73
2023/09/21 00:55:11;;;;;;;;;5.75;4.25;;;;;22.45;49.41;99536.59;5084899;27;45308;-72
2023/09/21 00:57:37;;;;;;;;;2.00;2.00;;;;;22.39;49.06;99538.81;5070949;28;45273;-73
2023/09/21 01:00:13;;;;;;;;;3.50;3.00;;;;;22.38;49.41;99537.13;5081859;27;45430;-73
2023/09/21 01:02:42;;;;;;;;;2.25;0.75;;;;;22.37;49.49;99530.06;5089540;27;45361;-72
2023/09/21 01:05:08;;;;;;;;;3.00;3.00;;;;;22.35;49.58;99526.66;5063415;28;45348;-73
2023/09/21 01:07:36;;;;;;;;;3.00;3.00;;;;;22.33;49.06;99520.56;5084027;27;45327;-73
2023/09/21 01:10:06;;;;;;;;;6.00;4.00;;;;;22.29;49.83;99519.13;5087442;27;45319;-72
2023/09/21 01:12:37;;;;;;;;;3.00;3.00;;;;;22.31;49.28;99525.19;5088859;27;46134;-73
2023/09/21 01:15:13;;;;;;;;;2.50;2.00;;;;;22.29;49.99;99532.50;5069199;27;45416;-72
2023/09/21 01:17:41;;;;;;;;;3.25;2.25;;;;;22.31;49.83;99525.19;5082078;27;45315;-72
2023/09/21 01:20:22;;;;;;;;;3.25;2.00;;;;;22.27;50.15;99523.75;5090914;27;45485;-72
2023/09/21 01:23:11;;;;;;;;;4.50;3.25;;;;;22.26;50.25;99539.94;5088066;27;45938;-72
2023/09/21 01:25:42;;;;;;;;;3.00;3.00;;;;;22.22;49.98;99525.94;5086066;27;45465;-73
2023/09/21 01:28:12;;;;;;;;;3.00;3.00;;;;;22.21;50.21;99529.59;5093671;27;45261;-74
2023/09/21 01:30:38;;;;;;;;;3.00;3.00;;;;;22.16;50.09;99521.97;5065706;27;46188;-74
2023/09/21 01:33:07;;;;;;;;;4.00;2.00;;;;;22.14;50.08;99520.38;5092325;27;46064;-73
2023/09/21 01:35:33;;;;;;;;;3.00;3.00;;;;;22.16;50.40;99513.06;5080260;27;45263;-75
2023/09/21 01:37:58;;;;;;;;;5.75;4.00;;;;;22.14;50.48;99515.00;5075008;27;45242;-73
2023/09/21 01:40:24;;;;;;;;;3.50;3.50;;;;;22.11;50.65;99513.44;5055998;27;45609;-74
2023/09/21 01:42:50;;;;;;;;;4.00;4.00;;;;;22.08;50.72;99513.72;5089154;27;45183;-74
2023/09/21 01:45:16;;;;;;;;;2.25;2.25;;;;;22.04;50.44;99510.44;5084985;27;45509;-74
2023/09/21 01:47:44;;;;;;;;;3.25;3.00;;;;;22.01;50.92;99502.66;5069535;28;45439;-74
2023/09/21 01:50:15;;;;;;;;;0.75;0.75;;;;;22.00;51.06;99503.63;5094827;27;45281;-74
2023/09/21 01:52:40;;;;;;;;;3.00;3.00;;;;;21.97;50.95;99506.53;5090722;27;45418;-75
2023/09/21 01:55:10;;;;;;;;;2.00;1.00;;;;;21.95;50.88;99505.84;5084687;27;45291;-74
2023/09/21 01:57:39;;;;;;;;;5.67;3.00;;;;;21.95;51.48;99516.53;5090803;27;45268;-76
2023/09/21 02:00:27;;;;;;;;;5.75;4.00;;;;;21.91;51.52;99517.75;5094736;27;45389;-73
2023/09/21 02:02:53;;;;;;;;;2.00;2.00;;;;;21.87;51.50;99505.59;5094514;27;45426;-75
2023/09/21 02:05:19;;;;;;;;;3.00;3.00;;;;;21.82;52.07;99505.97;5088433;27;45466;-73
2023/09/21 02:07:48;;;;;;;;;5.00;4.00;;;;;21.73;51.84;99496.03;5087692;27;45467;-74
2023/09/21 02:10:16;;;;;;;;;2.25;2.00;;;;;21.64;52.18;99478.91;5093413;27;45530;-73
2023/09/21 02:12:53;;;;;;;;;4.00;4.00;;;;;21.58;52.33;99484.75;5094294;27;46208;-72
2023/09/21 02:15:19;;;;;;;;;4.00;3.50;;;;;21.52;52.34;99485.19;5062280;28;45398;-73
2023/09/21 02:17:45;;;;;;;;;4.50;3.00;;;;;21.47;51.79;99487.41;5065684;27;45760;-72
2023/09/21 02:20:14;;;;;;;;;4.00;1.00;;;;;21.39;52.78;99470.16;5090144;27;45909;-72
2023/09/21 02:22:46;;;;;;;;;4.00;3.25;;;;;21.31;52.59;99466.38;5075524;28;45425;-72
2023/09/21 02:25:11;;;;;;;;;3.75;3.00;;;;;21.21;52.85;99455.59;5079953;27;45335;-73
2023/09/21 02:27:38;;;;;;;;;5.00;3.00;;;;;21.16;53.16;99447.09;5093799;27;45170;-74
2023/09/21 02:30:06;;;;;;;;;2.50;2.50;;;;;21.09;53.31;99454.72;5092350;27;45642;-72
2023/09/21 02:32:33;;;;;;;;;7.25;4.25;;;;;21.00;53.53;99452.78;5085906;27;47139;-74
2023/09/21 02:34:59;;;;;;;;;3.25;3.25;;;;;20.92;53.31;99446.22;5083088;27;45613;-75
2023/09/21 02:37:25;;;;;;;;;3.50;3.25;;;;;20.83;53.66;99435.41;5078434;27;45434;-72
2023/09/21 02:39:50;;;;;;;;;2.25;2.25;;;;;20.78;53.44;99441.97;5070249;28;45329;-74
2023/09/21 02:42:16;;;;;;;;;3.75;3.00;;;;;20.75;53.62;99436.88;5093646;27;45334;-74
2023/09/21 02:44:41;;;;;;;;;2.00;2.00;;;;;20.66;53.78;99424.19;5061809;28;57072;-74
2023/09/21 02:47:07;;;;;;;;;6.50;3.00;;;;;20.63;53.98;99424.44;5066560;27;45416;-72
2023/09/21 02:49:32;;;;;;;;;3.00;1.25;;;;;20.55;54.38;99427.69;5090150;27;45260;-75
2023/09/21 02:51:57;;;;;;;;;4.00;3.00;;;;;20.51;54.71;99415.53;5085408;27;49381;-74
2023/09/21 02:54:23;;;;;;;;;2.00;2.00;;;;;20.46;54.47;99412.38;5087130;27;51471;-73
2023/09/21 02:56:50;;;;;;;;;2.50;2.50;;;;;20.42;54.24;99410.91;5092458;27;45181;-73
2023/09/21 02:59:15;;;;;;;;;4.00;2.25;;;;;20.39;54.51;99401.34;5090930;27;45306;-75
2023/09/21 03:01:40;;;;;;;;;3.50;2.75;;;;;20.39;54.80;99404.00;5086679;27;46172;-74
2023/09/21 03:04:06;;;;;;;;;4.00;4.00;;;;;20.34;54.69;99387.50;5090073;27;45205;-75
2023/09/21 03:06:33;;;;;;;;;2.00;2.00;;;;;20.35;54.40;99397.22;5093964;27;45212;-74
2023/09/21 03:08:58;;;;;;;;;4.00;2.00;;;;;20.34;55.02;99390.16;5091186;27;45345;-75
2023/09/21 03:11:24;;;;;;;;;3.00;3.00;;;;;20.25;54.86;99388.19;5086524;27;45377;-74
2023/09/21 03:13:50;;;;;;;;;1.00;1.00;;;;;20.30;54.71;99397.56;5089318;27;45281;-74
2023/09/21 03:16:17;;;;;;;;;2.50;2.00;;;;;20.28;55.22;99387.97;5093641;27;45370;-73
2023/09/21 03:18:46;;;;;;;;;2.50;2.50;;;;;20.25;55.44;99386.38;5089930;27;45507;-74
2023/09/21 03:21:15;;;;;;;;;1.75;1.00;;;;;20.25;55.52;99390.84;5084968;27;48044;-72
2023/09/21 03:23:41;;;;;;;;;2.75;2.00;;;;;20.21;55.61;99389.41;5087479;27;45520;-73
2023/09/21 03:26:10;;;;;;;;;2.25;1.75;;;;;20.23;55.58;99388.31;5088153;27;45320;-73
2023/09/21 03:28:37;;;;;;;;;2.00;1.33;;;;;20.23;56.12;99392.81;5090566;27;45556;-71
2023/09/21 03:31:03;;;;;;;;;3.00;3.00;;;;;20.14;56.09;99379.19;5097100;27;47258;-74
2023/09/21 03:33:29;;;;;;;;;1.75;1.75;;;;;20.22;56.12;99383.09;5097094;27;45335;-72
2023/09/21 03:35:54;;;;;;;;;3.00;2.00;;;;;20.21;55.84;99387.56;5085665;27;45424;-73
2023/09/21 03:38:20;;;;;;;;;2.25;2.25;;;;;20.22;55.90;99391.94;5078715;27;45269;-74
2023/09/21 03:40:48;;;;;;;;;4.00;1.50;;;;;20.23;56.54;99382.97;5084780;27;45450;-72
2023/09/21 03:43:13;;;;;;;;;2.00;1.00;;;;;20.19;56.28;99378.84;5092246;27;45260;-72
2023/09/21 03:45:43;;;;;;;;;0.33;0.33;;;;;20.24;56.40;99383.84;5075477;28;45496;-74
2023/09/21 03:48:09;;;;;;;;;4.25;3.00;;;;;20.25;56.60;99389.06;5075106;27;45348;-76
2023/09/21 03:50:36;;;;;;;;;1.00;1.00;;;;;20.26;56.56;99382.75;5096570;27;45494;-75
2023/09/21 03:53:05;;;;;;;;;2.75;1.25;;;;;20.25;56.33;99367.72;5093600;27;45321;-73
2023/09/21 03:55:31;;;;;;;;;2.25;1.25;;;;;20.26;56.37;99373.91;5089167;27;45327;-73
2023/09/21 03:57:57;;;;;;;;;2.00;2.00;;;;;20.26;56.84;99365.88;5085345;27;45381;-74
2023/09/21 04:03:03;;;;;;;;;2.75;2.75;;;;;20.26;56.92;99365.88;5089572;27;45348;-73
2023/09/21 04:05:31;;;;;;;;;2.00;2.00;;;;;20.26;56.52;99372.09;5072617;28;45347;-72
2023/09/21 04:07:56;;;;;;;;;2.00;2.00;;;;;20.28;56.69;99371.97;5080838;27;45213;-73
2023/09/21 04:10:22;;;;;;;;;2.75;2.75;;;;;20.27;56.96;99373.78;5093831;27;45472;-72
2023/09/21 04:12:50;;;;;;;;;2.25;2.25;;;;;20.25;57.01;99364.19;5096373;27;45307;-72
2023/09/21 04:15:16;;;;;;;;;3.75;3.00;;;;;20.32;57.06;99377.94;5092213;27;45457;-74
2023/09/21 04:17:42;;;;;;;;;3.25;2.25;;;;;20.33;57.11;99379.63;5067278;27;45535;-73
2023/09/21 04:20:11;;;;;;;;;2.00;2.00;;;;;20.34;57.25;99382.16;5092570;27;46121;-73
2023/09/21 04:22:41;;;;;;;;;3.00;2.75;;;;;20.27;57.13;99372.94;5088954;27;45290;-74
2023/09/21 04:25:07;;;;;;;;;1.50;1.50;;;;;20.34;57.02;99381.31;5069937;28;45467;-74
2023/09/21 04:27:34;;;;;;;;;3.00;3.00;;;;;20.34;56.86;99367.97;5066508;27;45260;-74
2023/09/21 04:30:01;;;;;;;;;4.00;2.75;;;;;20.35;56.79;99357.19;5091619;27;46149;-75
2023/09/21 04:32:26;;;;;;;;;3.25;3.25;;;;;20.35;57.23;99346.53;5077817;28;45588;-73
2023/09/21 04:34:51;;;;;;;;;4.25;3.25;;;;;20.25;57.33;99333.06;5092247;27;45807;-73
2023/09/21 04:37:16;;;;;;;;;2.50;2.50;;;;;20.32;57.61;99344.09;5082639;27;45591;-73
2023/09/21 04:39:42;;;;;;;;;1.75;1.00;;;;;20.32;57.44;99351.25;5063459;27;45429;-73
2023/09/21 04:42:08;;;;;;;;;2.25;1.50;;;;;20.32;57.48;99345.91;5065636;27;45261;-74
2023/09/21 04:44:34;;;;;;;;;3.75;2.00;;;;;20.32;57.08;99352.09;5075297;27;45452;-74
2023/09/21 04:47:03;;;;;;;;;3.00;3.00;;;;;20.29;57.29;99344.34;5067245;27;46436;-74
2023/09/21 04:49:28;;;;;;;;;2.25;2.25;;;;;20.27;57.39;99338.25;5071827;28;45343;-74
2023/09/21 04:51:53;;;;;;;;;5.00;3.00;;;;;20.26;57.71;99342.75;5080602;27;48240;-74
2023/09/21 04:54:21;;;;;;;;;4.00;2.75;;;;;20.28;57.58;99329.28;5071252;28;54049;-75
2023/09/21 04:56:47;;;;;;;;;1.00;1.00;;;;;20.25;57.39;99324.19;5054959;28;45570;-75
2023/09/21 04:59:14;;;;;;;;;3.00;3.00;;;;;20.23;57.43;99318.97;5092306;27;45936;-74
2023/09/21 05:01:39;;;;;;;;;3.25;2.25;;;;;20.25;57.91;99329.50;5087188;27;45538;-75
2023/09/21 05:04:05;;;;;;;;;3.00;2.00;;;;;20.23;57.19;99315.47;5092217;27;45402;-75
2023/09/21 05:06:30;;;;;;;;;2.50;2.00;;;;;20.24;57.93;99333.19;5063600;28;45501;-75
2023/09/21 05:08:56;;;;;;;;;4.00;3.00;;;;;20.25;57.64;99324.19;5091836;27;45406;-75
2023/09/21 05:11:21;;;;;;;;;2.25;2.25;;;;;20.22;57.55;99306.59;5086206;27;55664;-75
2023/09/21 05:13:46;;;;;;;;;3.00;2.75;;;;;20.22;57.63;99297.75;5086779;27;45376;-75
2023/09/21 05:16:12;;;;;;;;;2.25;1.75;;;;;20.22;57.52;99293.25;5078558;27;45236;-74
2023/09/21 05:18:37;;;;;;;;;3.00;3.00;;;;;20.21;57.56;99296.91;5092368;27;45347;-75
2023/09/21 05:21:04;;;;;;;;;5.00;4.00;;;;;20.24;57.36;99298.50;5096794;27;45373;-74
2023/09/21 05:23:30;;;;;;;;;4.75;3.00;;;;;20.20;57.46;99299.69;5092330;27;45286;-74
2023/09/21 05:25:56;;;;;;;;;2.25;2.25;;;;;20.21;57.40;99294.22;5084851;27;45546;-76
2023/09/21 05:28:22;;;;;;;;;3.00;2.00;;;;;20.18;58.16;99290.97;5091088;27;46087;-68
2023/09/21 05:30:47;;;;;;;;;3.50;3.50;;;;;20.18;58.10;99299.81;5095102;27;45478;-73
2023/09/21 05:33:13;;;;;;;;;4.00;4.00;;;;;20.13;57.74;99305.50;5092650;27;45436;-67
2023/09/21 05:35:38;;;;;;;;;4.00;3.00;;;;;20.13;58.31;99304.66;5069822;27;45520;-73
2023/09/21 05:38:05;;;;;;;;;3.00;3.00;;;;;20.10;58.23;99303.06;5081588;27;46141;-77
2023/09/21 05:40:32;;;;;;;;;3.50;2.00;;;;;20.08;58.39;99310.34;5074734;27;45350;-72
2023/09/21 05:42:58;;;;;;;;;2.75;2.75;;;;;20.01;58.59;99306.44;5090497;27;45330;-71
2023/09/21 05:45:23;;;;;;;;;2.50;2.50;;;;;19.97;58.56;99310.31;5082471;27;45566;-72
2023/09/21 05:47:48;;;;;;;;;2.00;2.00;;;;;19.96;58.21;99327.25;5067635;27;46237;-76
2023/09/21 05:50:14;;;;;;;;;4.00;3.00;;;;;19.93;58.70;99324.84;5093416;27;46966;-79
2023/09/21 05:52:39;;;;;;;;;1.00;1.00;;;;;19.88;58.77;99321.66;5089932;27;45381;-77
2023/09/21 05:55:04;;;;;;;;;4.00;3.50;;;;;19.80;58.23;99322.22;5065561;27;55906;-69
2023/09/21 05:57:30;;;;;;;;;2.75;2.75;;;;;19.83;58.96;99330.00;5073841;28;45781;-68
2023/09/21 05:59:55;;;;;;;;;3.75;2.75;;;;;19.77;58.46;99339.28;5094515;27;45371;-75
2023/09/21 06:02:21;;;;;;;;;3.50;3.00;;;;;19.78;59.04;99332.13;5089867;27;45809;-74
2023/09/21 06:04:47;;;;;;;;;4.00;3.00;;;;;19.75;58.93;99332.38;5087526;27;45460;-74
2023/09/21 06:07:13;;;;;;;;;4.00;4.00;;;;;19.71;58.76;99336.22;5092098;27;45334;-74
2023/09/21 06:09:38;;;;;;;;;3.50;2.75;;;;;19.68;59.27;99337.31;5094680;27;45695;-71
2023/09/21 06:12:07;;;;;;;;;3.50;3.50;;;;;19.63;59.00;99335.00;5057483;28;45695;-71
2023/09/21 06:14:35;;;;;;;;;5.00;2.50;;;;;19.61;59.21;99339.59;5081031;27;46496;-67
2023/09/21 06:17:00;;;;;;;;;3.75;2.75;;;;;19.58;59.16;99344.28;5079962;27;45288;-68
2023/09/21 06:19:26;;;;;;;;;5.75;5.75;;;;;19.55;59.65;99345.38;5090717;27;49987;-68
2023/09/21 06:21:56;;;;;;;;;3.00;3.00;;;;;19.53;59.78;99344.63;5090895;27;45261;-68
2023/09/21 06:24:24;;;;;;;;;5.50;5.50;;;;;19.48;59.41;99336.13;5083273;27;45261;-68
2023/09/21 06:26:51;;;;;;;;;3.00;2.25;;;;;19.45;59.58;99339.00;5091323;27;46233;-69
2023/09/21 06:29:18;;;;;;;;;3.25;2.25;;;;;19.43;59.66;99332.94;5069675;27;45411;-68
2023/09/21 06:31:44;;;;;;;;;4.75;3.00;;;;;19.42;59.80;99336.56;5091656;27;45380;-72
2023/09/21 06:34:09;;;;;;;;;4.25;4.00;;;;;19.36;59.87;99337.00;5085045;27;45465;-71
2023/09/21 06:36:37;;;;;;;;;2.50;2.50;;;;;19.35;59.74;99346.00;5089932;27;48635;-73
2023/09/21 06:39:04;;;;;;;;;4.00;4.00;;;;;19.28;59.96;99345.56;5087722;27;45550;-73
2023/09/21 06:41:30;;;;;;;;;3.00;3.00;;;;;19.28;59.85;99338.44;5101008;27;45287;-73
2023/09/21 06:43:56;;;;;;;;;1.33;0.33;;;;;19.27;60.04;99350.06;5081037;27;45525;-74
2023/09/21 06:46:21;;;;;;;;;6.25;4.25;;;;;19.25;60.50;99348.47;5088270;27;46136;-73
2023/09/21 06:48:48;;;;;;;;;6.00;3.50;;;;;19.18;60.48;99353.34;5082375;27;45517;-73
2023/09/21 06:51:13;;;;;;;;;5.00;4.00;;;;;19.21;60.52;99358.47;5080277;27;45261;-75
2023/09/21 06:53:39;;;;;;;;;3.75;3.00;;;;;19.20;60.38;99380.75;5079338;28;45309;-72
2023/09/21 06:56:05;;;;;;;;;3.00;2.00;;;;;19.14;61.07;99365.19;5078834;28;47062;-72
2023/09/21 06:58:31;;;;;;;;;5.00;4.00;;;;;19.12;60.93;99370.66;5080043;28;45352;-72
2023/09/21 07:00:58;;;;;;;;;6.50;4.50;;;;;19.11;61.07;99368.94;5079429;28;45431;-72
2023/09/21 07:03:24;;;;;;;;;3.75;3.75;;;;;19.08;61.24;99361.19;5078751;28;45628;-72
2023/09/21 07:05:49;;;;;;;;;1.00;1.00;;;;;19.08;60.83;99347.00;5080031;28;46034;-71
2023/09/21 07:08:15;;;;;;;;;5.00;4.00;;;;;19.10;60.88;99361.91;5079976;28;45172;-70
2023/09/21 07:10:41;;;;;;;;;4.00;3.25;;;;;19.07;61.13;99346.16;5080221;28;45247;-70
2023/09/21 07:13:09;;;;;;;;;3.00;1.50;;;;;19.05;61.18;99356.06;5080124;28;45330;-68
2023/09/21 07:15:37;;;;;;;;;5.25;3.75;;;;;19.05;61.34;99363.22;5080058;28;45326;-68
2023/09/21 07:18:05;;;;;;;;;3.75;3.00;;;;;19.02;61.57;99366.06;5079960;28;45313;-67
2023/09/21 07:20:30;;;;;;;;;4.50;4.50;;;;;19.00;61.64;99360.88;5078878;28;45205;-68
2023/09/21 07:22:56;;;;;;;;;3.00;3.00;;;;;18.95;61.50;99358.53;5079700;28;45257;-67
2023/09/21 07:25:25;;;;;;;;;2.00;2.00;;;;;18.96;61.96;99360.22;5079647;28;45293;-67
2023/09/21 07:27:54;;;;;;;;;5.25;3.00;;;;;18.94;61.94;99355.97;5080053;28;45335;-66
2023/09/21 07:30:23;;;;;;;;;4.00;4.00;;;;;18.90;61.76;99343.81;5080008;28;45357;-65
2023/09/21 07:32:49;;;;;;;;;2.00;2.00;;;;;18.91;61.68;99342.91;5061510;28;45817;-65
2023/09/21 07:35:14;;;;;;;;;3.00;3.00;;;;;18.87;62.05;99336.91;5079673;28;45399;-65
2023/09/21 07:37:45;;;;;;;;;2.00;2.00;;;;;18.86;61.79;99339.69;5079459;28;45299;-65
2023/09/21 07:40:14;;;;;;;;;4.00;3.00;;;;;18.83;61.82;99320.31;5079852;28;45408;-65
2023/09/21 07:42:42;;;;;;;;;2.00;2.00;;;;;18.82;61.74;99321.25;5079569;28;45378;-65
2023/09/21 07:45:09;;;;;;;;;3.00;3.00;;;;;18.78;62.23;99321.56;5079425;28;45227;-65
2023/09/21 07:47:34;;;;;;;;;4.00;2.25;;;;;18.80;62.29;99322.31;5061576;28;45363;-65
2023/09/21 07:49:59;;;;;;;;;4.00;3.00;;;;;18.79;62.07;99329.47;5079727;28;45235;-65
2023/09/21 07:52:28;;;;;;;;;4.00;3.00;;;;;18.78;62.03;99324.25;5079605;28;45133;-65
2023/09/21 07:54:54;;;;;;;;;2.00;2.00;;;;;18.77;62.05;99315.41;5079234;28;46559;-66
2023/09/21 07:57:19;;;;;;;;;3.00;3.00;;;;;18.76;62.33;99319.03;5079608;28;45433;-66
2023/09/21 07:59:44;;;;;;;;;1.33;1.00;;;;;18.78;62.34;99316.25;5078068;28;51887;-66
2023/09/21 08:02:09;;;;;;;;;2.75;2.25;;;;;18.78;62.31;99316.25;5079303;28;54529;-66
2023/09/21 08:04:36;;;;;;;;;4.25;3.50;;;;;18.75;62.21;99311.16;5061135;28;47018;-67
2023/09/21 08:07:05;;;;;;;;;3.67;3.67;;;;;18.75;62.26;99308.50;5077995;28;45457;-67
2023/09/21 08:09:30;;;;;;;;;2.67;2.67;;;;;18.76;62.61;99305.72;5079481;28;45231;-67
2023/09/21 08:11:56;;;;;;;;;4.00;2.25;;;;;18.75;62.36;99300.53;5080167;28;45507;-67
2023/09/21 08:14:21;;;;;;;;;3.00;2.25;;;;;18.77;62.39;99312.75;5081356;28;51373;-67
2023/09/21 08:16:46;;;;;;;;;2.00;2.00;;;;;18.78;62.44;99311.81;5081441;28;47772;-67
2023/09/21 08:19:12;;;;;;;;;3.00;3.00;;;;;18.75;62.53;99312.00;5064754;28;45365;-67
2023/09/21 08:21:37;;;;;;;;;3.25;3.25;;;;;18.76;62.46;99302.22;5082525;28;45534;-67
2023/09/21 08:24:03;;;;;;;;;3.50;3.50;;;;;18.75;62.36;99293.38;5082430;28;50120;-67
2023/09/21 08:26:28;;;;;;;;;4.25;3.00;;;;;18.78;62.51;99302.94;5064333;28;45461;-68
2023/09/21 08:28:53;;;;;;;;;3.00;3.00;;;;;18.76;62.49;99304.88;5082835;28;45245;-67
2023/09/21 08:31:19;;;;;;;;;2.00;2.00;;;;;18.75;62.57;99301.34;5064370;28;45421;-67
2023/09/21 08:33:46;;;;;;;;;2.50;2.00;;;;;18.77;62.76;99304.78;5080821;28;47568;-67
2023/09/21 08:36:15;;;;;;;;;2.00;2.00;;;;;18.75;62.39;99301.34;5081160;28;45327;-67
2023/09/21 08:38:41;;;;;;;;;3.50;2.00;;;;;18.71;62.41;99289.25;5082220;28;45215;-67
2023/09/21 08:41:06;;;;;;;;;1.25;1.25;;;;;18.76;62.39;99291.59;5060669;28;45275;-67
2023/09/21 08:43:32;;;;;;;;;3.00;3.00;;;;;18.72;62.57;99284.78;5081961;28;45788;-67
2023/09/21 08:45:58;;;;;;;;;2.50;2.00;;;;;18.74;62.15;99289.03;5080663;28;45341;-67
2023/09/21 08:48:26;;;;;;;;;2.25;2.25;;;;;18.73;62.83;99292.66;5082294;28;45352;-67
2023/09/21 08:50:52;;;;;;;;;6.00;3.00;;;;;18.75;62.61;99289.88;5064018;28;45597;-67
2023/09/21 08:53:22;;;;;;;;;4.00;3.00;;;;;18.74;62.63;99289.03;5079645;28;47871;-67
2023/09/21 08:55:48;;;;;;;;;4.75;2.00;;;;;18.75;62.73;99300.53;5082100;28;45343;-67
2023/09/21 08:58:23;;;;;;;;;2.25;2.25;;;;;18.70;62.75;99284.88;5063945;28;45364;-67
2023/09/21 09:00:54;;;;;;;;;3.75;2.25;;;;;18.73;62.75;99300.63;5082009;28;45400;-67
2023/09/21 09:03:27;;;;;;;;;2.75;2.75;;;;;18.72;62.58;99282.13;5082139;28;45462;-67
2023/09/21 09:05:55;;;;;;;;;4.25;4.25;;;;;18.72;62.58;99280.31;5082015;28;45220;-67
2023/09/21 09:08:22;;;;;;;;;5.75;3.00;;;;;18.65;62.66;99271.06;5082234;28;45304;-67
2023/09/21 09:10:47;;;;;;;;;2.25;2.00;;;;;18.71;62.63;99272.44;5081728;28;45339;-67
2023/09/21 09:13:13;;;;;;;;;2.00;2.00;;;;;18.71;62.54;99272.44;5082001;28;45446;-67
2023/09/21 09:15:38;;;;;;;;;2.25;2.00;;;;;18.72;62.53;99271.50;5081732;28;45331;-67
2023/09/21 09:18:05;;;;;;;;;3.75;2.00;;;;;18.71;62.71;99261.81;5082144;28;45473;-67
2023/09/21 09:20:32;;;;;;;;;2.00;1.25;;;;;18.74;62.98;99261.56;5080045;28;45461;-67
2023/09/21 09:23:00;;;;;;;;;3.00;3.00;;;;;18.74;62.55;99261.56;5080322;28;45301;-67
2023/09/21 09:25:26;;;;;;;;;3.00;1.00;;;;;18.75;62.88;99263.28;5081194;28;45209;-67
2023/09/21 09:27:51;;;;;;;;;1.00;1.00;;;;;18.75;62.98;99261.44;5081862;28;45204;-67
2023/09/21 09:30:18;;;;;;;;;3.50;1.50;;;;;18.76;62.65;99255.16;5080294;28;45524;-67
2023/09/21 09:32:47;;;;;;;;;1.50;1.50;;;;;18.76;62.88;99255.16;5080425;28;48375;-67
2023/09/21 09:35:15;;;;;;;;;2.00;2.00;;;;;18.76;62.88;99249.00;5080314;28;45325;-67
2023/09/21 09:37:42;;;;;;;;;2.00;2.00;;;;;18.78;62.83;99237.28;5081420;28;45367;-68
2023/09/21 09:40:18;;;;;;;;;3.25;3.00;;;;;18.78;63.24;99237.28;5081139;28;45509;-67
2023/09/21 09:42:45;;;;;;;;;2.00;2.00;;;;;18.79;62.82;99233.69;5081379;28;46050;-67
2023/09/21 09:45:18;;;;;;;;;1.00;1.00;;;;;18.80;62.98;99234.53;5081372;28;45275;-67
2023/09/21 09:47:57;;;;;;;;;2.00;2.00;;;;;18.80;63.34;99245.16;5081457;28;45319;-68
2023/09/21 09:50:31;;;;;;;;;3.25;3.25;;;;;18.80;63.28;99253.16;5081521;28;45189;-67
2023/09/21 09:53:07;;;;;;;;;2.25;2.00;;;;;18.79;63.19;99236.34;5079241;28;46455;-67
2023/09/21 09:55:35;;;;;;;;;2.50;2.00;;;;;18.77;63.14;99234.75;5081181;28;45280;-67
2023/09/21 09:58:01;;;;;;;;;3.25;1.50;;;;;18.78;63.45;99237.28;5081331;28;45503;-66
2023/09/21 10:00:27;;;;;;;;;5.25;4.00;;;;;18.76;63.80;99233.88;5081333;28;45383;-66
2023/09/21 10:02:57;;;;;;;;;1.00;1.00;;;;;18.78;63.47;99250.59;5080829;28;45350;-66
2023/09/21 10:05:26;;;;;;;;;4.50;3.00;;;;;18.76;63.45;99244.53;5081176;28;45290;-66
2023/09/21 10:07:56;;;;;;;;;3.25;2.75;;;;;18.76;63.64;99241.03;5079471;28;45339;-65
2023/09/21 10:10:25;;;;;;;;;3.00;2.25;;;;;18.75;63.74;99231.34;5080996;28;45376;-65
2023/09/21 10:12:52;;;;;;;;;2.25;2.00;;;;;18.79;64.13;99246.13;5081124;28;45359;-65
2023/09/21 10:15:22;;;;;;;;;3.00;3.00;;;;;18.74;63.83;99222.53;5080307;28;45555;-65
2023/09/21 10:17:50;;;;;;;;;3.00;3.00;;;;;18.76;63.79;99225.91;5079773;28;45417;-65
2023/09/21 10:20:24;;;;;;;;;3.25;3.00;;;;;18.78;63.84;99226.66;5080851;28;45477;-65
2023/09/21 10:22:54;;;;;;;;;3.25;3.00;;;;;18.81;63.66;99242.38;5079055;28;48234;-65
2023/09/21 10:25:37;;;;;;;;;5.00;3.25;;;;;18.81;64.10;99234.41;5080278;28;45380;-65
2023/09/21 10:28:22;;;;;;;;;4.00;3.75;;;;;18.84;63.93;99220.88;5080936;28;45441;-65
2023/09/21 10:30:47;;;;;;;;;4.00;4.00;;;;;18.82;64.04;99228.13;5080737;28;45446;-66
2023/09/21 10:33:13;;;;;;;;;3.00;2.00;;;;;18.86;64.00;99235.91;5079157;28;46066;-66
2023/09/21 10:35:45;;;;;;;;;4.00;2.67;;;;;18.84;63.83;99236.84;5080514;28;45466;-66
2023/09/21 10:38:16;;;;;;;;;3.00;3.00;;;;;18.87;63.75;99235.78;5080590;28;45308;-66
2023/09/21 10:40:42;;;;;;;;;2.00;2.00;;;;;18.91;63.70;99255.06;5061345;28;45612;-66
2023/09/21 10:43:38;;;;;;;;;3.00;2.50;;;;;18.91;63.93;99257.72;5080368;28;45252;-66
2023/09/21 10:46:24;;;;;;;;;2.00;1.00;;;;;18.90;63.72;99248.88;5080633;28;45428;-66
2023/09/21 10:49:04;;;;;;;;;1.00;1.00;;;;;18.91;63.62;99253.25;5080595;28;45167;-66
2023/09/21 10:51:31;;;;;;;;;3.00;1.00;;;;;18.89;63.46;99262.28;5080108;28;45407;-67
2023/09/21 10:53:59;;;;;;;;;1.67;1.67;;;;;18.87;63.76;99274.81;5080447;28;45330;-67
2023/09/21 10:56:28;;;;;;;;;1.00;1.00;;;;;18.86;63.39;99283.81;5061898;28;45568;-67
2023/09/21 10:58:53;;;;;;;;;1.33;1.00;;;;;18.84;63.65;99282.09;5080473;28;45436;-67
2023/09/21 11:01:19;;;;;;;;;3.00;1.00;;;;;18.82;63.31;99276.03;5078780;28;45674;-67
2023/09/21 11:03:50;;;;;;;;;1.00;1.00;;;;;18.81;63.81;99287.63;5080368;28;46085;-67
2023/09/21 11:06:17;;;;;;;;;1.75;1.00;;;;;18.79;63.66;99289.56;5099852;27;45193;-67
2023/09/21 11:08:44;;;;;;;;;0.00;0.00;;;;;18.78;63.26;99279.88;5099420;27;45370;-67
2023/09/21 11:11:12;;;;;;;;;0.00;0.00;;;;;18.76;63.01;99275.63;5100599;27;45454;-68
2023/09/21 11:13:38;;;;;;;;;0.00;0.00;;;;;18.68;62.18;99273.50;5082240;27;45364;-67
2023/09/21 11:16:04;;;;;;;;;4.75;3.00;;;;;18.59;62.21;99268.81;5100421;27;45259;-67
2023/09/21 11:18:29;;;;;;;;;0.00;0.00;;;;;18.51;62.09;99261.41;5082243;27;46117;-68
2023/09/21 11:20:56;;;;;;;;;0.00;0.00;;;;;18.44;61.70;99266.31;5099205;27;45606;-68
2023/09/21 11:23:21;;;;;;;;;0.00;0.00;;;;;18.37;62.02;99258.88;5100439;27;46393;-68
2023/09/21 11:25:47;;;;;;;;;0.00;0.00;;;;;18.32;61.82;99257.38;5082011;27;45508;-68
2023/09/21 11:28:13;;;;;;;;;0.67;0.67;;;;;18.27;61.66;99250.69;5080206;28;45357;-68
2023/09/21 11:30:42;;;;;;;;;1.33;0.00;;;;;18.21;61.64;99236.00;5079858;28;45298;-69
2023/09/21 11:33:09;;;;;;;;;2.00;2.00;;;;;18.15;61.77;99229.31;5078564;28;48031;-68
2023/09/21 11:35:34;;;;;;;;;1.67;1.00;;;;;18.08;61.52;99230.69;5078511;28;45527;-68
2023/09/21 11:38:00;;;;;;;;;2.50;1.00;;;;;18.12;61.20;99228.69;5078293;28;45330;-68